Time;durP1;ratioP1;P1;durP2;ratioP2;P2;SDS_P1;SDS_P2;PMS_P1;PMS_P2;Temp;Humidity;BMP_temperature;BMP_pressure;BME280_temperature;BME280_humidity;BME280_pressure;Samples;Min_cycle;Max_cycle;Signal;HPM_P1;HPM_P2
2022/12/05 00:00:36;;;;;;;53.63;26.93;;;;;;;1.86;84.61;101337.75;5116961;28;20181;-68
2022/12/05 00:03:03;;;;;;;55.43;26.90;;;;;;;1.91;84.58;101330.56;5117304;28;20178;-68
2022/12/05 00:05:30;;;;;;;60.50;27.37;;;;;;;1.97;84.55;101334.00;5117687;28;20213;-68
2022/12/05 00:07:56;;;;;;;54.60;28.30;;;;;;;2.01;84.53;101332.97;5116602;28;20185;-69
2022/12/05 00:10:23;;;;;;;55.07;27.47;;;;;;;1.99;84.18;101338.31;5116541;28;20213;-68
2022/12/05 00:12:49;;;;;;;59.00;27.30;;;;;;;2.00;84.33;101336.53;5116795;28;20181;-68
2022/12/05 00:15:15;;;;;;;56.17;28.20;;;;;;;1.97;84.69;101339.28;5116628;28;20705;-68
2022/12/05 00:17:42;;;;;;;54.47;28.70;;;;;;;1.99;84.33;101337.44;5116718;28;20184;-68
2022/12/05 00:20:08;;;;;;;49.00;27.03;;;;;;;1.99;84.34;101346.25;5116291;28;20189;-68
2022/12/05 00:22:37;;;;;;;63.80;30.27;;;;;;;2.01;84.70;101343.53;5116563;28;20209;-68
2022/12/05 00:25:07;;;;;;;60.93;29.40;;;;;;;2.00;84.84;101345.31;5098110;28;20209;-68
2022/12/05 00:27:33;;;;;;;62.40;29.10;;;;;;;2.00;84.53;101341.81;5116846;28;20191;-68
2022/12/05 00:30:00;;;;;;;57.07;27.60;;;;;;;2.03;84.47;101342.59;5116467;28;20673;-68
2022/12/05 00:32:29;;;;;;;53.10;27.20;;;;;;;1.99;84.73;101335.69;5098127;28;20193;-68
2022/12/05 00:34:56;;;;;;;59.83;27.27;;;;;;;2.01;84.38;101335.63;5116005;28;20212;-68
2022/12/05 00:37:23;;;;;;;57.60;28.40;;;;;;;2.09;84.50;101337.16;5116120;28;20192;-68
2022/12/05 00:39:50;;;;;;;54.27;27.87;;;;;;;2.04;84.83;101344.34;5115799;28;20185;-68
2022/12/05 00:42:16;;;;;;;52.97;27.03;;;;;;;2.03;84.75;101344.38;5097611;28;20268;-68
2022/12/05 00:44:43;;;;;;;63.53;27.40;;;;;;;1.94;85.14;101337.56;5097747;28;20209;-68
2022/12/05 00:47:09;;;;;;;59.03;27.87;;;;;;;1.88;85.62;101340.38;5115875;28;20643;-68
2022/12/05 00:49:35;;;;;;;53.43;27.47;;;;;;;1.88;85.37;101338.59;5097937;28;20669;-68
2022/12/05 00:52:02;;;;;;;60.73;28.93;;;;;;;1.94;85.57;101340.22;5116066;28;20185;-68
2022/12/05 00:54:28;;;;;;;56.87;28.67;;;;;;;2.04;84.75;101335.56;5115684;28;20240;-68
2022/12/05 00:56:57;;;;;;;53.07;28.53;;;;;;;1.96;85.44;101335.72;5115654;28;20185;-68
2022/12/05 00:59:24;;;;;;;58.47;28.50;;;;;;;2.05;85.52;101332.84;5115604;28;20181;-68
2022/12/05 01:01:50;;;;;;;66.77;29.10;;;;;;;1.99;85.55;101337.44;5115779;28;20673;-68
2022/12/05 01:04:19;;;;;;;51.33;27.33;;;;;;;2.04;85.54;101328.50;5115732;28;20252;-68
2022/12/05 01:06:46;;;;;;;67.97;29.57;;;;;;;2.04;85.50;101322.34;5115482;28;20190;-68
2022/12/05 01:09:16;;;;;;;59.63;27.80;;;;;;;2.02;85.34;101330.31;5115676;28;20646;-68
2022/12/05 01:11:43;;;;;;;63.97;29.33;;;;;;;2.02;85.57;101325.03;5115366;28;20178;-68
2022/12/05 01:14:11;;;;;;;65.33;28.37;;;;;;;2.03;85.88;101324.09;5115536;28;20202;-68
2022/12/05 01:16:40;;;;;;;58.57;28.77;;;;;;;2.03;85.73;101318.81;5115540;28;20185;-68
2022/12/05 01:19:28;;;;;;;55.27;27.87;;;;;;;2.06;85.53;101315.22;5115217;28;20607;-68
2022/12/05 01:21:55;;;;;;;59.30;27.27;;;;;;;2.05;86.42;101318.78;5115046;28;20712;-68
2022/12/05 01:24:22;;;;;;;54.53;27.13;;;;;;;1.99;85.98;101325.13;5115598;28;20697;-68
2022/12/05 01:26:49;;;;;;;52.80;27.30;;;;;;;1.99;85.87;101330.41;5115309;28;20189;-70
2022/12/05 01:29:17;;;;;;;51.20;28.10;;;;;;;2.06;85.83;101331.06;5115001;28;20186;-68
2022/12/05 01:31:44;;;;;;;59.13;28.97;;;;;;;1.98;86.21;101328.66;5114972;28;20177;-68
2022/12/05 01:34:13;;;;;;;63.40;27.93;;;;;;;1.99;86.39;101326.84;5115137;28;20287;-68
2022/12/05 01:36:40;;;;;;;64.30;29.17;;;;;;;1.99;86.85;101330.41;5115147;28;20208;-68
2022/12/05 01:39:08;;;;;;;62.30;29.30;;;;;;;1.97;86.43;101332.22;5115121;28;20181;-68
2022/12/05 01:41:38;;;;;;;56.63;27.53;;;;;;;1.96;86.74;101337.50;5114699;28;20209;-68
2022/12/05 01:44:27;;;;;;;58.30;29.23;;;;;;;1.92;86.88;101337.59;5114677;28;20204;-68
2022/12/05 01:46:54;;;;;;;62.27;29.40;;;;;;;1.91;87.44;101340.28;5114700;28;20280;-68
2022/12/05 01:49:30;;;;;;;55.33;28.80;;;;;;;1.90;87.12;101333.28;5114726;28;20268;-68
2022/12/05 01:52:12;;;;;;;52.77;28.00;;;;;;;2.00;87.32;101341.81;5115213;28;20165;-68
2022/12/05 01:54:39;;;;;;;63.03;28.77;;;;;;;1.97;86.96;101342.78;5114654;28;20227;-68
2022/12/05 01:57:09;;;;;;;61.47;27.60;;;;;;;2.02;87.23;101343.50;5114473;28;20554;-68
2022/12/05 01:59:40;;;;;;;50.50;26.50;;;;;;;2.00;87.12;101345.31;5115069;28;20182;-68
2022/12/05 02:02:07;;;;;;;58.57;28.23;;;;;;;1.96;87.88;101346.31;5114650;28;20212;-68
2022/12/05 02:04:39;;;;;;;54.73;27.20;;;;;;;1.98;87.15;101336.56;5114291;28;20797;-68
2022/12/05 02:07:05;;;;;;;53.60;28.33;;;;;;;1.99;87.28;101327.75;5114649;28;20182;-68
2022/12/05 02:09:31;;;;;;;59.53;28.30;;;;;;;1.97;87.45;101328.69;5114189;28;20666;-68
2022/12/05 02:12:01;;;;;;;63.47;27.43;;;;;;;1.95;87.36;101333.16;5114557;28;20187;-68
2022/12/05 02:14:36;;;;;;;61.77;26.70;;;;;;;1.94;87.50;101339.31;5114053;28;20213;-68
2022/12/05 02:17:27;;;;;;;64.53;29.17;;;;;;;1.96;87.65;101346.31;5114175;28;20181;-68
2022/12/05 02:20:23;;;;;;;54.63;27.70;;;;;;;2.02;87.53;101354.06;5114420;28;20169;-69
2022/12/05 02:23:17;;;;;;;59.27;27.10;;;;;;;1.96;87.72;101350.72;5114574;28;20196;-69
2022/12/05 02:26:08;;;;;;;55.03;27.70;;;;;;;1.95;87.55;101347.22;5114379;28;20173;-68
2022/12/05 02:28:59;;;;;;;55.70;27.73;;;;;;;1.96;87.68;101350.72;5114345;28;20170;-68
2022/12/05 02:31:35;;;;;;;61.03;25.87;;;;;;;1.99;87.69;101351.53;5113964;28;20174;-68
2022/12/05 02:34:15;;;;;;;60.77;27.63;;;;;;;2.01;87.42;101359.38;5113852;28;20578;-68
2022/12/05 02:36:50;;;;;;;59.47;28.40;;;;;;;2.01;87.89;101348.81;5114166;28;20523;-68
2022/12/05 02:39:26;;;;;;;63.90;27.40;;;;;;;1.95;87.95;101355.16;5113885;28;20181;-68
2022/12/05 02:42:14;;;;;;;56.60;27.23;;;;;;;1.99;87.57;101358.56;5114016;28;20235;-68
2022/12/05 02:44:55;;;;;;;60.30;27.77;;;;;;;2.07;87.84;101356.59;5113862;28;20212;-68
2022/12/05 02:47:26;;;;;;;52.73;26.70;;;;;;;2.02;87.82;101361.16;5114487;28;20177;-68
2022/12/05 02:49:55;;;;;;;60.93;27.93;;;;;;;2.05;88.09;101361.06;5116578;28;20173;-68
2022/12/05 02:52:24;;;;;;;53.50;25.97;;;;;;;2.04;87.96;101352.28;5117276;28;20201;-68
2022/12/05 02:54:53;;;;;;;54.33;27.57;;;;;;;1.96;88.18;101351.59;5116768;28;20213;-68
2022/12/05 02:57:21;;;;;;;55.40;27.73;;;;;;;2.08;87.86;101358.31;5115081;28;20636;-68
2022/12/05 02:59:47;;;;;;;51.70;25.87;;;;;;;2.07;87.59;101357.47;5100487;28;20546;-68
2022/12/05 03:02:40;;;;;;;50.03;25.60;;;;;;;2.09;87.61;101365.34;5121542;28;20213;-68
2022/12/05 03:05:28;;;;;;;55.33;27.17;;;;;;;2.12;87.56;101358.19;5119852;28;20224;-68
2022/12/05 03:07:57;;;;;;;54.30;24.87;;;;;;;2.16;87.29;101363.44;5119784;28;20180;-68
2022/12/05 03:10:26;;;;;;;59.00;27.73;;;;;;;2.06;87.67;101358.38;5119936;28;20197;-68
2022/12/05 03:12:58;;;;;;;52.73;25.83;;;;;;;2.08;87.53;101366.25;5120888;28;20254;-68
2022/12/05 03:15:40;;;;;;;55.17;26.03;;;;;;;2.04;87.49;101362.84;5121348;28;20210;-68
2022/12/05 03:18:21;;;;;;;45.40;23.67;;;;;;;2.07;88.23;101356.59;5122543;28;20172;-68
2022/12/05 03:20:56;;;;;;;54.90;24.10;;;;;;;1.97;88.01;101358.63;5121961;28;20189;-68
2022/12/05 03:23:26;;;;;;;51.20;25.90;;;;;;;2.02;88.12;101353.22;5122101;28;20205;-68
2022/12/05 03:26:06;;;;;;;53.40;23.73;;;;;;;2.06;87.72;101350.47;5119659;28;20171;-68
2022/12/05 03:29:25;;;;;;;57.63;25.33;;;;;;;2.08;87.96;101355.69;5117866;28;20180;-68
2022/12/05 03:32:02;;;;;;;49.80;24.73;;;;;;;2.06;87.55;101352.22;5096425;28;20201;-68
2022/12/05 03:34:33;;;;;;;55.67;25.50;;;;;;;2.09;87.26;101357.44;5117977;28;20231;-68
2022/12/05 03:37:06;;;;;;;57.13;25.23;;;;;;;2.04;87.91;101349.63;5117620;28;20570;-68
2022/12/05 03:39:36;;;;;;;54.17;26.53;;;;;;;2.06;87.92;101353.09;5117653;28;20177;-68
2022/12/05 03:42:09;;;;;;;60.80;26.67;;;;;;;2.02;87.72;101351.44;5117614;28;20190;-68
2022/12/05 03:44:44;;;;;;;51.50;25.00;;;;;;;2.01;87.82;101354.09;5117657;28;20215;-68
2022/12/05 03:47:13;;;;;;;49.70;25.07;;;;;;;2.03;88.00;101355.81;5117664;28;20177;-68
2022/12/05 03:49:54;;;;;;;62.83;26.20;;;;;;;2.07;87.74;101360.09;5117091;28;20188;-68
2022/12/05 03:52:31;;;;;;;58.27;25.70;;;;;;;2.09;87.71;101354.78;5117587;28;20208;-68
2022/12/05 03:55:18;;;;;;;54.83;27.00;;;;;;;2.09;87.49;101354.78;5116882;28;20251;-68
2022/12/05 03:57:56;;;;;;;53.00;25.20;;;;;;;2.03;87.70;101358.44;5117423;28;20179;-68
2022/12/05 04:00:23;;;;;;;57.77;25.23;;;;;;;2.02;87.79;101354.06;5117093;28;20568;-68
2022/12/05 04:03:13;;;;;;;55.50;25.77;;;;;;;1.99;87.85;101353.28;5098363;28;20229;-68
2022/12/05 04:05:46;;;;;;;48.60;24.67;;;;;;;2.10;87.61;101367.06;5117001;28;20194;-68
2022/12/05 04:08:32;;;;;;;58.93;26.97;;;;;;;2.03;87.65;101355.81;5116959;28;20179;-68
2022/12/05 04:11:05;;;;;;;43.83;26.13;;;;;;;2.05;87.70;101351.34;5116889;28;20181;-69
2022/12/05 04:13:49;;;;;;;51.07;24.97;;;;;;;2.02;87.78;101355.84;5115329;28;20170;-69
2022/12/05 04:19:26;;;;;;;49.37;25.17;;;;;;;2.02;87.66;101359.38;5116765;28;20611;-69
2022/12/05 04:21:55;;;;;;;52.70;24.53;;;;;;;2.02;88.04;101348.78;5116589;28;20211;-69
2022/12/05 04:27:25;;;;;;;56.73;26.20;;;;;;;2.10;87.60;101370.59;5116920;28;20230;-69
2022/12/05 04:30:00;;;;;;;48.77;24.20;;;;;;;1.98;88.15;101365.63;5116257;28;20244;-68
2022/12/05 04:32:39;;;;;;;57.17;26.43;;;;;;;2.03;88.22;101368.16;5117022;28;20492;-68
2022/12/05 04:35:13;;;;;;;46.97;24.73;;;;;;;2.06;88.07;101368.94;5116123;28;20303;-68
2022/12/05 04:37:43;;;;;;;55.97;24.93;;;;;;;2.06;88.20;101370.69;5116602;28;20178;-68
2022/12/05 04:40:18;;;;;;;53.73;25.13;;;;;;;2.06;88.10;101370.69;5116044;28;20185;-68
2022/12/05 04:42:47;;;;;;;53.07;25.37;;;;;;;2.06;88.19;101368.94;5116216;28;20196;-68
2022/12/05 04:45:18;;;;;;;53.50;25.43;;;;;;;2.02;88.21;101375.22;5115879;28;20199;-68
2022/12/05 04:47:52;;;;;;;44.37;23.47;;;;;;;2.04;88.30;101375.19;5116200;28;20529;-68
2022/12/05 04:50:20;;;;;;;58.53;25.33;;;;;;;2.08;87.95;101372.44;5116099;28;20172;-68
2022/12/05 04:52:49;;;;;;;50.33;25.00;;;;;;;2.08;88.27;101383.00;5116024;28;20638;-68
2022/12/05 04:55:24;;;;;;;58.90;24.60;;;;;;;2.06;88.00;101374.22;5115679;28;20714;-68
2022/12/05 04:58:05;;;;;;;52.33;24.37;;;;;;;2.08;88.05;101375.06;5115957;28;20177;-68
2022/12/05 05:00:36;;;;;;;50.53;24.63;;;;;;;2.04;88.20;101368.13;5115929;28;20173;-68
2022/12/05 05:03:09;;;;;;;47.03;24.60;;;;;;;2.09;88.28;101374.16;5116360;28;20199;-68
2022/12/05 05:05:37;;;;;;;58.17;24.93;;;;;;;2.05;88.31;101382.19;5115804;28;20569;-68
2022/12/05 05:08:03;;;;;;;50.27;25.83;;;;;;;2.05;88.09;101376.91;5116071;28;20509;-68
2022/12/05 05:10:41;;;;;;;51.13;23.60;;;;;;;1.98;88.12;101376.19;5115380;28;20194;-68
2022/12/05 05:13:08;;;;;;;58.23;25.87;;;;;;;2.05;88.16;101376.91;5115675;28;20607;-68
2022/12/05 05:15:34;;;;;;;53.73;25.93;;;;;;;2.05;88.21;101382.19;5115275;28;20575;-68
2022/12/05 05:18:00;;;;;;;55.87;25.70;;;;;;;2.11;88.25;101377.63;5115557;28;20274;-68
2022/12/05 05:20:27;;;;;;;50.13;25.97;;;;;;;2.06;88.24;101373.34;5115153;28;20199;-68
2022/12/05 05:22:55;;;;;;;50.87;25.20;;;;;;;2.09;88.04;101378.56;5115413;28;20197;-68
2022/12/05 05:25:22;;;;;;;49.90;26.47;;;;;;;2.12;88.21;101376.69;5114673;28;20212;-68
2022/12/05 05:27:51;;;;;;;48.10;23.80;;;;;;;2.08;88.38;101375.06;5115401;28;20562;-68
2022/12/05 05:30:19;;;;;;;50.47;22.43;;;;;;;2.08;88.35;101376.81;5115069;28;20185;-68
2022/12/05 05:32:45;;;;;;;47.57;23.90;;;;;;;2.12;88.08;101381.97;5114957;28;20644;-68
2022/12/05 05:35:12;;;;;;;48.80;24.77;;;;;;;2.16;88.34;101379.28;5114907;28;20204;-69
2022/12/05 05:37:39;;;;;;;43.90;22.33;;;;;;;2.07;88.33;101372.44;5115134;28;20181;-69
2022/12/05 05:40:08;;;;;;;40.87;22.03;;;;;;;2.10;88.43;101375.88;5114789;28;20228;-69
2022/12/05 05:42:44;;;;;;;52.43;23.57;;;;;;;2.17;88.44;101387.16;5114912;28;20196;-69
2022/12/05 05:45:12;;;;;;;45.27;23.43;;;;;;;2.12;88.25;101378.47;5114770;28;20204;-69
2022/12/05 05:47:39;;;;;;;45.30;22.23;;;;;;;2.04;88.48;101385.75;5114660;28;20190;-69
2022/12/05 05:50:07;;;;;;;42.07;23.23;;;;;;;2.04;88.76;101388.38;5114906;28;20197;-69
2022/12/05 05:52:35;;;;;;;48.67;23.10;;;;;;;2.07;88.31;101389.16;5114845;28;20185;-69
2022/12/05 05:55:04;;;;;;;44.43;22.43;;;;;;;2.04;88.46;101386.59;5114443;28;20205;-69
2022/12/05 05:57:30;;;;;;;49.90;23.00;;;;;;;2.03;88.29;101400.72;5114505;28;20201;-69
2022/12/05 05:59:57;;;;;;;45.30;22.20;;;;;;;2.05;88.07;101393.63;5114436;28;20187;-69
2022/12/05 06:02:23;;;;;;;35.73;19.83;;;;;;;1.98;88.34;101396.47;5114619;28;20211;-69
2022/12/05 06:04:50;;;;;;;38.50;20.53;;;;;;;1.93;88.08;101399.22;5114417;28;20257;-69
2022/12/05 06:07:16;;;;;;;43.60;23.03;;;;;;;1.97;88.60;101395.59;5114313;28;20186;-69
2022/12/05 06:09:43;;;;;;;38.13;20.30;;;;;;;1.93;88.39;101396.56;5114331;28;20185;-69
2022/12/05 06:12:09;;;;;;;37.20;20.63;;;;;;;1.87;88.41;101397.59;5114207;28;20195;-69
2022/12/05 06:14:35;;;;;;;39.30;20.37;;;;;;;1.88;88.46;101401.97;5114105;28;20205;-69
2022/12/05 06:17:02;;;;;;;43.10;21.47;;;;;;;1.94;88.84;101403.59;5114163;28;20203;-69
2022/12/05 06:19:28;;;;;;;38.27;20.40;;;;;;;1.96;88.36;101407.06;5114516;28;20177;-70
2022/12/05 06:21:54;;;;;;;39.97;21.57;;;;;;;1.95;88.30;101405.34;5114186;28;20180;-70
2022/12/05 06:24:21;;;;;;;39.93;21.83;;;;;;;1.93;88.40;101409.78;5113908;28;20559;-70
2022/12/05 06:26:47;;;;;;;43.73;21.63;;;;;;;1.88;88.63;101411.66;5114392;28;20661;-70
2022/12/05 06:29:13;;;;;;;35.63;20.20;;;;;;;1.92;88.14;101408.06;5114302;28;20538;-70
2022/12/05 06:31:40;;;;;;;38.63;20.10;;;;;;;1.94;88.45;101411.53;5113954;28;20551;-70
2022/12/05 06:34:07;;;;;;;37.80;20.30;;;;;;;1.97;88.15;101411.44;5113870;28;20302;-70
2022/12/05 06:36:33;;;;;;;34.93;19.80;;;;;;;1.99;88.13;101414.03;5113024;28;20223;-70
2022/12/05 06:39:00;;;;;;;33.47;19.17;;;;;;;1.90;88.20;101416.00;5114072;28;20181;-70
2022/12/05 06:41:26;;;;;;;32.47;18.80;;;;;;;1.88;87.95;101419.59;5113789;28;20185;-70
2022/12/05 06:43:54;;;;;;;31.23;18.77;;;;;;;1.90;88.31;101426.56;5113613;28;20601;-70
2022/12/05 06:46:27;;;;;;;34.80;19.67;;;;;;;1.89;87.67;101419.56;5113823;28;20180;-70
2022/12/05 06:48:55;;;;;;;29.63;18.67;;;;;;;1.83;88.12;101422.34;5113720;28;20186;-70
2022/12/05 06:51:23;;;;;;;30.80;17.70;;;;;;;1.81;88.27;101424.16;5113705;28;20650;-70
2022/12/05 06:53:49;;;;;;;34.27;19.40;;;;;;;1.79;88.35;101425.09;5095412;28;20300;-70
2022/12/05 06:56:18;;;;;;;33.93;19.23;;;;;;;1.76;88.49;101425.19;5113897;28;20546;-70
2022/12/05 06:58:47;;;;;;;34.70;20.10;;;;;;;1.79;88.45;101431.25;5113550;28;20677;-70
2022/12/05 07:01:39;;;;;;;37.10;19.17;;;;;;;1.75;88.14;101421.69;5113620;28;20189;-70
2022/12/05 07:04:12;;;;;;;34.70;20.30;;;;;;;1.76;88.39;101430.47;5113820;28;20292;-70
2022/12/05 07:06:39;;;;;;;35.87;20.00;;;;;;;1.75;88.18;101428.69;5114178;28;20173;-70
2022/12/05 07:09:09;;;;;;;36.47;20.10;;;;;;;1.74;88.45;101421.69;5113506;28;20253;-70
2022/12/05 07:11:35;;;;;;;26.43;17.87;;;;;;;1.72;88.56;101431.44;5113544;28;20186;-70
2022/12/05 07:14:02;;;;;;;29.47;17.63;;;;;;;1.69;88.60;101435.00;5113695;28;20205;-70
2022/12/05 07:16:40;;;;;;;33.47;19.03;;;;;;;1.69;88.13;101432.38;5095294;28;20189;-71
2022/12/05 07:19:06;;;;;;;38.33;19.43;;;;;;;1.62;88.23;101443.97;5114272;28;20177;-71
2022/12/05 07:21:32;;;;;;;31.83;18.50;;;;;;;1.65;88.05;101439.50;5113670;28;20231;-71
2022/12/05 07:23:59;;;;;;;33.83;19.17;;;;;;;1.46;87.78;101444.34;5113236;28;20232;-71
2022/12/05 07:26:25;;;;;;;33.37;19.50;;;;;;;1.50;87.92;101445.13;5113365;28;20268;-71
2022/12/05 07:28:54;;;;;;;30.60;18.83;;;;;;;1.42;88.18;101447.94;5113416;28;20554;-71
2022/12/05 07:31:22;;;;;;;32.90;18.10;;;;;;;1.28;88.03;101461.44;5113329;28;20655;-71
2022/12/05 07:33:49;;;;;;;31.23;17.93;;;;;;;1.27;88.23;101454.44;5095030;28;20270;-71
2022/12/05 07:36:18;;;;;;;35.50;18.33;;;;;;;1.21;87.81;101451.91;5113275;28;20619;-71
2022/12/05 07:38:44;;;;;;;32.17;17.40;;;;;;;1.13;87.77;101456.50;5113482;28;20185;-71
2022/12/05 07:41:26;;;;;;;27.93;17.90;;;;;;;1.09;88.32;101457.44;5113190;28;20178;-71
2022/12/05 07:43:54;;;;;;;24.87;16.97;;;;;;;1.01;87.75;101462.88;5113253;28;20213;-71
2022/12/05 07:46:21;;;;;;;29.73;18.83;;;;;;;1.00;88.01;101457.63;5113087;28;20643;-71
2022/12/05 07:48:48;;;;;;;32.53;18.90;;;;;;;0.97;88.45;101455.06;5116500;28;20592;-71
2022/12/05 07:51:15;;;;;;;28.33;18.73;;;;;;;1.00;87.90;101465.53;5117259;28;20185;-71
2022/12/05 07:53:43;;;;;;;26.00;18.20;;;;;;;0.94;88.28;101461.28;5116763;28;20209;-71
2022/12/05 07:56:13;;;;;;;28.17;18.50;;;;;;;0.92;87.95;101462.19;5117196;28;20358;-71
2022/12/05 07:58:39;;;;;;;28.43;18.07;;;;;;;0.94;88.41;101469.19;5117193;28;20257;-71
2022/12/05 08:01:08;;;;;;;30.87;17.73;;;;;;;0.93;87.69;101467.44;5117382;28;20178;-71
2022/12/05 08:03:36;;;;;;;30.43;18.13;;;;;;;0.93;88.61;101466.56;5116992;28;20205;-71
2022/12/05 08:06:04;;;;;;;28.77;18.93;;;;;;;0.92;87.71;101468.34;5116726;28;20185;-71
2022/12/05 08:08:30;;;;;;;34.93;18.80;;;;;;;0.91;87.72;101466.63;5116927;28;20177;-71
2022/12/05 08:11:08;;;;;;;33.00;18.87;;;;;;;0.89;87.57;101478.06;5117677;28;20632;-71
2022/12/05 08:13:35;;;;;;;31.03;17.70;;;;;;;0.84;88.11;101478.19;5117102;28;20205;-71
2022/12/05 08:16:08;;;;;;;34.40;19.30;;;;;;;0.84;87.60;101481.69;5116624;28;20186;-71
2022/12/05 08:18:35;;;;;;;37.90;18.53;;;;;;;0.84;87.63;101483.44;5098797;28;20222;-71
2022/12/05 08:21:07;;;;;;;24.77;16.43;;;;;;;0.85;88.58;101485.19;5116643;28;20193;-71
2022/12/05 08:23:35;;;;;;;33.63;19.60;;;;;;;0.83;88.18;101484.34;5116382;28;20231;-71
2022/12/05 08:26:08;;;;;;;31.13;18.53;;;;;;;0.84;87.90;101486.94;5116458;28;20181;-71
2022/12/05 08:28:35;;;;;;;33.07;18.93;;;;;;;0.84;87.88;101494.88;5117201;28;20188;-71
2022/12/05 08:31:06;;;;;;;31.33;18.60;;;;;;;0.89;88.59;101496.53;5116821;28;20211;-71
2022/12/05 08:33:33;;;;;;;30.67;17.93;;;;;;;0.91;87.83;101500.00;5116580;28;20637;-71
2022/12/05 08:36:01;;;;;;;25.43;17.10;;;;;;;0.96;88.36;101500.78;5116679;28;20196;-71
2022/12/05 08:38:27;;;;;;;34.67;19.33;;;;;;;0.98;88.51;101489.31;5116090;28;20194;-71
2022/12/05 08:40:54;;;;;;;32.33;18.33;;;;;;;0.98;87.87;101497.25;5116064;28;20192;-71
2022/12/05 08:43:20;;;;;;;31.87;18.03;;;;;;;1.04;88.02;101493.59;5115799;28;20212;-71
2022/12/05 08:45:51;;;;;;;30.27;17.80;;;;;;;1.13;88.23;101497.84;5115974;28;20185;-71
2022/12/05 08:48:18;;;;;;;36.10;18.23;;;;;;;1.08;88.60;101504.94;5116507;28;20545;-71
2022/12/05 08:50:47;;;;;;;28.10;18.20;;;;;;;1.11;88.74;101510.19;5116121;28;20189;-71
2022/12/05 08:53:14;;;;;;;26.37;17.17;;;;;;;1.10;89.01;101521.59;5115729;28;20550;-71
2022/12/05 08:55:40;;;;;;;31.63;16.73;;;;;;;1.09;89.08;101523.38;5116284;28;20193;-71
2022/12/05 08:58:07;;;;;;;27.50;16.33;;;;;;;1.14;88.36;101525.94;5116275;28;20213;-71
2022/12/05 09:00:33;;;;;;;29.33;17.83;;;;;;;1.18;88.72;101514.44;5114709;28;20199;-71
2022/12/05 09:02:59;;;;;;;32.00;19.07;;;;;;;1.19;88.09;101518.78;5115505;28;20217;-71
2022/12/05 09:05:26;;;;;;;29.60;17.83;;;;;;;1.14;89.27;101513.59;5115553;28;20202;-71
2022/12/05 09:07:55;;;;;;;31.63;17.50;;;;;;;1.17;89.12;101520.59;5115522;28;20182;-71
2022/12/05 09:10:21;;;;;;;34.40;19.10;;;;;;;1.17;88.89;101515.31;5115415;28;20694;-71
2022/12/05 09:12:50;;;;;;;30.57;17.97;;;;;;;1.19;88.69;101516.16;5115442;28;20543;-71
2022/12/05 09:15:17;;;;;;;33.47;18.73;;;;;;;1.20;88.82;101518.78;5115320;28;20205;-71
2022/12/05 09:17:44;;;;;;;30.53;18.80;;;;;;;1.23;89.14;101516.06;5115465;28;20196;-71
2022/12/05 09:20:12;;;;;;;39.20;18.47;;;;;;;1.26;88.41;101523.03;5115546;28;20185;-71
2022/12/05 09:22:40;;;;;;;30.03;18.63;;;;;;;1.28;88.91;101529.16;5115871;28;20180;-71
2022/12/05 09:25:07;;;;;;;31.53;20.20;;;;;;;1.33;89.16;101532.56;5115072;28;20222;-71
2022/12/05 09:27:33;;;;;;;34.03;18.40;;;;;;;1.35;88.77;101529.91;5096841;28;20189;-71
2022/12/05 09:30:00;;;;;;;29.73;17.50;;;;;;;1.38;88.60;101530.72;5115355;28;20207;-71
2022/12/05 09:32:26;;;;;;;29.30;20.67;;;;;;;1.41;89.18;101530.66;5114970;28;20189;-71
2022/12/05 09:34:53;;;;;;;29.37;20.20;;;;;;;1.44;89.17;101533.22;5115199;28;20205;-71
2022/12/05 09:37:19;;;;;;;31.70;19.83;;;;;;;1.48;88.73;101531.38;5114910;28;20677;-71
2022/12/05 09:40:05;;;;;;;31.30;17.93;;;;;;;1.47;88.96;101534.94;5115199;28;20181;-71
2022/12/05 09:42:57;;;;;;;31.27;19.77;;;;;;;1.46;88.79;101538.44;5114741;28;20185;-71
2022/12/05 09:45:35;;;;;;;33.80;19.87;;;;;;;1.43;88.73;101536.75;5115342;28;20547;-71
2022/12/05 09:48:21;;;;;;;27.20;18.30;;;;;;;1.43;88.16;101542.03;5115294;28;20173;-71
2022/12/05 09:50:56;;;;;;;38.43;18.50;;;;;;;1.46;88.57;101538.44;5115466;28;20170;-71
2022/12/05 09:53:29;;;;;;;34.80;21.77;;;;;;;1.46;88.45;101547.28;5115111;28;20173;-71
2022/12/05 09:55:59;;;;;;;30.40;18.23;;;;;;;1.46;89.03;101536.72;5114837;28;20196;-71
2022/12/05 09:58:46;;;;;;;30.07;18.83;;;;;;;1.51;88.84;101541.91;5114855;28;20180;-71
2022/12/05 10:01:18;;;;;;;29.47;19.43;;;;;;;1.56;88.54;101532.09;5114798;28;20173;-71
2022/12/05 10:04:00;;;;;;;34.37;20.57;;;;;;;1.56;88.45;101536.53;5114608;28;20224;-71
2022/12/05 10:06:44;;;;;;;30.73;18.90;;;;;;;1.55;87.94;101538.25;5114404;28;20177;-71
2022/12/05 10:09:16;;;;;;;33.83;18.40;;;;;;;1.54;88.65;101539.19;5114582;28;20188;-71
2022/12/05 10:12:13;;;;;;;28.83;18.27;;;;;;;1.56;88.67;101534.75;5114554;28;20192;-71
2022/12/05 10:15:15;;;;;;;24.17;17.30;;;;;;;1.63;88.62;101538.13;5114530;28;20689;-71
2022/12/05 10:17:50;;;;;;;29.70;18.53;;;;;;;1.60;88.28;101536.38;5069432;28;20212;-71
2022/12/05 10:20:32;;;;;;;31.93;19.67;;;;;;;1.62;88.22;101537.22;5114428;28;20177;-71
2022/12/05 10:23:14;;;;;;;30.27;18.40;;;;;;;1.62;88.19;101531.09;5114276;28;20189;-71
2022/12/05 10:26:04;;;;;;;26.07;18.20;;;;;;;1.63;88.64;101536.34;5114404;28;20180;-71
2022/12/05 10:28:38;;;;;;;24.70;17.87;;;;;;;1.64;88.38;101537.22;5114306;28;20179;-71
2022/12/05 10:31:12;;;;;;;26.73;17.60;;;;;;;1.64;88.69;101538.06;5114236;28;20542;-71
2022/12/05 10:33:46;;;;;;;27.83;19.23;;;;;;;1.66;88.46;101536.28;5114201;28;20569;-71
2022/12/05 10:36:13;;;;;;;26.03;17.27;;;;;;;1.66;88.55;101535.41;5113954;28;20184;-71
2022/12/05 10:38:43;;;;;;;33.67;18.97;;;;;;;1.72;88.78;101539.69;5114486;28;20553;-71
2022/12/05 10:41:12;;;;;;;27.70;17.77;;;;;;;1.67;88.43;101538.00;5114136;28;20196;-71
2022/12/05 10:43:42;;;;;;;23.33;17.37;;;;;;;1.69;88.48;101538.84;5113843;28;20224;-71
2022/12/05 10:46:10;;;;;;;22.47;17.57;;;;;;;1.72;88.19;101542.31;5114057;28;20185;-71
2022/12/05 10:48:42;;;;;;;24.17;17.33;;;;;;;1.74;88.60;101545.78;5114099;28;20188;-71
2022/12/05 10:51:15;;;;;;;24.60;16.80;;;;;;;1.78;88.52;101543.06;5114333;28;20174;-71
2022/12/05 10:53:50;;;;;;;28.07;18.27;;;;;;;1.78;88.46;101543.06;5113982;28;20197;-71
2022/12/05 10:56:39;;;;;;;26.63;17.40;;;;;;;1.81;88.20;101544.75;5096457;28;20178;-71
2022/12/05 10:59:08;;;;;;;24.27;17.03;;;;;;;1.84;87.98;101545.53;5114262;28;20253;-71
2022/12/05 11:01:36;;;;;;;21.93;16.93;;;;;;;1.82;88.59;101543.84;5113849;28;20196;-71
2022/12/05 11:04:29;;;;;;;25.53;16.87;;;;;;;1.78;88.40;101536.91;5113456;28;20217;-71
2022/12/05 11:06:59;;;;;;;25.67;17.37;;;;;;;1.81;88.45;101528.91;5102913;28;20201;-71
2022/12/05 11:09:34;;;;;;;20.43;16.30;;;;;;;1.81;88.38;101518.34;5114498;28;20252;-71
2022/12/05 11:12:13;;;;;;;17.57;14.37;;;;;;;1.85;88.50;101523.53;5114142;28;20528;-72
2022/12/05 11:14:51;;;;;;;20.73;15.27;;;;;;;1.85;88.40;101517.38;5113808;28;20205;-71
2022/12/05 11:17:31;;;;;;;26.17;15.87;;;;;;;1.84;87.63;101513.00;5113750;28;20165;-71
2022/12/05 11:19:57;;;;;;;19.03;14.97;;;;;;;1.83;88.40;101519.19;5113746;28;20178;-71
2022/12/05 11:22:34;;;;;;;22.13;16.40;;;;;;;1.84;88.29;101521.78;5114502;28;20613;-71
2022/12/05 11:25:23;;;;;;;25.17;16.37;;;;;;;1.85;88.28;101518.25;5117988;28;20257;-71
2022/12/05 11:27:50;;;;;;;21.03;15.20;;;;;;;1.84;88.08;101521.78;5117996;28;20186;-71
2022/12/05 11:30:20;;;;;;;22.17;16.53;;;;;;;1.82;88.00;101517.44;5117729;28;20271;-71
2022/12/05 11:32:48;;;;;;;19.87;16.30;;;;;;;1.79;88.41;101526.28;5117617;28;20227;-71
2022/12/05 11:35:14;;;;;;;23.53;14.27;;;;;;;1.78;87.67;101519.28;5117379;28;20282;-71
2022/12/05 11:37:58;;;;;;;20.30;15.60;;;;;;;1.78;87.94;101521.94;5117289;28;20372;-71
2022/12/05 11:41:08;;;;;;;23.33;15.90;;;;;;;1.78;88.29;101515.78;5117872;28;20265;-71
2022/12/05 11:43:46;;;;;;;20.33;15.77;;;;;;;1.79;88.06;101518.38;5069868;28;20240;-71